createdAt,value
2019-05-03T00:04:51.653Z,12.47
2019-05-03T00:10:25.686Z,11.03
2019-05-03T00:15:39.803Z,7.97
2019-05-03T00:20:54.762Z,9.80
2019-05-03T00:26:31.902Z,9.17
2019-05-03T00:31:46.826Z,6.47
2019-05-03T00:37:03.382Z,10.00
2019-05-03T00:42:22.405Z,8.57
2019-05-03T00:47:55.293Z,9.97
2019-05-03T00:53:47.904Z,6.03
2019-05-03T00:59:02.195Z,8.87
2019-05-03T01:04:19.610Z,12.33
2019-05-03T01:09:35.281Z,11.55
2019-05-03T01:14:47.215Z,8.10
2019-05-03T01:19:57.571Z,13.73
2019-05-03T01:25:12.077Z,10.20
2019-05-03T01:30:24.569Z,10.77
2019-05-03T01:36:13.970Z,9.40
2019-05-03T01:41:26.537Z,9.80
2019-05-03T01:46:42.076Z,11.10
2019-05-03T01:52:14.887Z,13.07
2019-05-03T01:57:27.325Z,12.53
2019-05-03T02:02:54.423Z,13.50
2019-05-03T02:08:07.389Z,19.43
2019-05-03T02:13:18.665Z,18.50
2019-05-03T02:18:32.177Z,12.10
2019-05-03T02:23:48.439Z,13.03
2019-05-03T02:28:58.027Z,9.90
2019-05-03T02:34:13.941Z,9.93
2019-05-03T02:39:26.203Z,13.13
2019-05-03T02:44:57.241Z,11.63
2019-05-03T02:50:16.789Z,12.47
2019-05-03T02:55:30.103Z,8.37
2019-05-03T03:01:06.577Z,11.00
2019-05-03T03:06:27.069Z,10.30
2019-05-03T03:11:45.630Z,10.50
2019-05-03T03:17:02.384Z,8.97
2019-05-03T03:22:16.019Z,11.83
2019-05-03T03:27:28.057Z,10.47
2019-05-03T03:32:42.739Z,9.77
2019-05-03T03:38:00.904Z,7.07
2019-05-03T03:43:16.455Z,13.67
2019-05-03T03:48:35.510Z,12.17
2019-05-03T03:54:07.093Z,7.20
2019-05-03T03:59:26.177Z,7.77
2019-05-03T04:04:58.368Z,7.90
2019-05-03T04:10:10.841Z,13.57
2019-05-03T04:15:36.642Z,7.53
2019-05-03T04:20:56.886Z,13.17
2019-05-03T04:26:16.328Z,7.47
2019-05-03T04:31:27.829Z,18.10
2019-05-03T04:36:41.141Z,9.20
2019-05-03T04:41:49.320Z,6.40
2019-05-03T04:47:06.904Z,7.83
2019-05-03T04:52:19.222Z,12.03
2019-05-03T04:57:39.795Z,11.70
2019-05-03T05:02:45.736Z,15.20
2019-05-03T05:08:05.940Z,9.47
2019-05-03T05:13:15.711Z,10.03
2019-05-03T05:18:35.632Z,7.75
2019-05-03T05:24:06.863Z,6.30
2019-05-03T05:29:21.062Z,8.00
2019-05-03T05:34:32.317Z,7.77
2019-05-03T05:39:48.819Z,10.87
2019-05-03T05:45:04.922Z,12.67
2019-05-03T05:50:48.787Z,12.67
2019-05-03T05:56:35.349Z,9.97
2019-05-03T06:02:10.111Z,9.10
2019-05-03T06:07:44.564Z,6.60
2019-05-03T06:13:04.939Z,9.17
2019-05-03T06:18:25.131Z,7.23
2019-05-03T06:23:52.901Z,7.37
2019-05-03T06:29:04.750Z,7.60
2019-05-03T06:34:14.981Z,8.17
2019-05-03T06:39:25.317Z,11.50
2019-05-03T06:44:36.955Z,7.40
2019-05-03T06:49:48.621Z,6.63
2019-05-03T06:55:10.517Z,7.70
2019-05-03T07:00:39.706Z,6.30
2019-05-03T07:06:11.863Z,6.43
2019-05-03T07:11:24.817Z,7.47
2019-05-03T07:16:39.907Z,6.67
2019-05-03T07:21:55.448Z,5.53
2019-05-03T07:27:08.215Z,4.17
2019-05-03T07:32:31.315Z,9.67
2019-05-03T07:37:41.742Z,5.10
2019-05-03T07:42:56.895Z,4.90
2019-05-03T07:48:14.913Z,4.17
2019-05-03T07:54:01.899Z,5.63
2019-05-03T07:59:14.988Z,6.63
2019-05-03T08:04:29.647Z,8.40
2019-05-03T08:10:05.407Z,5.10
2019-05-03T08:15:24.063Z,5.97
2019-05-03T08:20:40.923Z,6.17
2019-05-03T08:25:51.435Z,4.83
2019-05-03T08:31:32.310Z,5.23
2019-05-03T08:37:18.510Z,4.53
2019-05-03T08:42:35.166Z,5.93
2019-05-03T08:47:55.343Z,5.63
2019-05-03T08:53:07.704Z,3.97
2019-05-03T08:58:18.935Z,5.53
2019-05-03T09:03:38.482Z,2.73
2019-05-03T09:08:54.357Z,4.33
2019-05-03T09:14:11.875Z,3.10
2019-05-03T09:19:45.323Z,6.17
2019-05-03T09:25:00.312Z,4.60
2019-05-03T09:30:14.370Z,5.53
2019-05-03T09:35:45.763Z,4.17
2019-05-03T09:41:02.189Z,4.03
2019-05-03T09:46:15.328Z,8.17
2019-05-03T09:51:28.555Z,4.17
2019-05-03T09:56:58.514Z,4.23
2019-05-03T10:02:15.172Z,4.87
2019-05-03T10:07:37.217Z,6.87
2019-05-03T10:12:52.356Z,4.57
2019-05-03T10:18:10.319Z,6.70
2019-05-03T10:23:47.050Z,9.23
2019-05-03T10:35:00.459Z,5.37
2019-05-03T10:40:17.734Z,4.80
2019-05-03T10:45:32.531Z,4.60
2019-05-03T10:51:09.930Z,7.27
2019-05-03T10:56:23.715Z,5.53
2019-05-03T11:01:52.203Z,4.03
2019-05-03T11:12:43.300Z,5.70
2019-05-03T11:17:55.737Z,3.90
2019-05-03T11:23:09.917Z,4.67
2019-05-03T11:28:28.053Z,4.80
2019-05-03T11:33:46.774Z,6.13
2019-05-03T11:39:16.962Z,6.33
2019-05-03T11:44:45.582Z,6.33
2019-05-03T11:49:55.791Z,6.20
2019-05-03T11:55:11.179Z,6.60
2019-05-03T12:00:25.329Z,7.53
2019-05-03T12:05:42.915Z,4.87
2019-05-03T12:11:00.585Z,5.10
2019-05-03T12:16:17.323Z,5.43
2019-05-03T12:21:30.673Z,8.20
2019-05-03T12:26:47.020Z,2.83
2019-05-03T12:32:00.015Z,6.17
2019-05-03T12:37:15.517Z,6.35
2019-05-03T12:42:29.871Z,5.13
2019-05-03T12:47:39.204Z,7.57
2019-05-03T12:52:52.440Z,7.03
2019-05-03T12:58:01.053Z,9.27
2019-05-03T13:03:15.245Z,6.10
2019-05-03T13:08:47.333Z,5.47
2019-05-03T13:13:56.466Z,9.83
2019-05-03T13:19:05.548Z,7.47
2019-05-03T13:24:22.815Z,4.20
2019-05-03T13:29:25.645Z,4.47
2019-05-03T13:34:35.363Z,3.60
2019-05-03T13:39:45.313Z,4.87
2019-05-03T13:44:55.776Z,5.97
2019-05-03T13:50:04.614Z,4.33
2019-05-03T13:55:15.069Z,5.53
2019-05-03T14:00:24.706Z,4.63
2019-05-03T14:05:35.221Z,6.23
2019-05-03T14:10:45.230Z,3.87
2019-05-03T14:15:49.710Z,5.47
2019-05-03T14:21:20.892Z,7.50
2019-05-03T14:26:29.851Z,7.27
2019-05-03T14:31:45.365Z,3.87
2019-05-03T14:36:55.527Z,5.73
2019-05-03T14:42:06.653Z,5.77
2019-05-03T14:47:14.789Z,4.03
2019-05-03T14:52:20.501Z,2.70
2019-05-03T14:57:38.231Z,6.17
2019-05-03T15:03:05.191Z,6.73
2019-05-03T15:08:14.996Z,6.73
2019-05-03T15:13:24.914Z,4.63
2019-05-03T15:18:31.329Z,4.97
2019-05-03T15:23:40.096Z,8.80
2019-05-03T15:28:49.643Z,5.20
2019-05-03T15:33:56.918Z,6.87
2019-05-03T15:39:07.802Z,4.90
2019-05-03T15:44:25.242Z,2.87
2019-05-03T15:49:35.726Z,4.37
2019-05-03T15:54:41.718Z,3.97
2019-05-03T15:59:52.194Z,5.73
2019-05-03T16:05:01.884Z,5.53
2019-05-03T16:10:10.506Z,4.10
2019-05-03T16:15:19.838Z,5.83
2019-05-03T16:20:26.556Z,4.50
2019-05-03T16:25:35.634Z,7.10
2019-05-03T16:30:55.570Z,3.10
2019-05-03T16:36:05.470Z,7.53
2019-05-03T16:41:17.662Z,6.67
2019-05-03T16:46:23.587Z,3.13
2019-05-03T16:51:34.850Z,6.83
2019-05-03T16:56:41.074Z,4.47
2019-05-03T17:01:52.924Z,4.33
2019-05-03T17:07:05.638Z,8.83
2019-05-03T17:12:15.217Z,4.57
2019-05-03T17:17:27.741Z,5.57
2019-05-03T17:22:37.321Z,4.67
2019-05-03T17:27:46.562Z,3.77
2019-05-03T17:32:57.541Z,5.40
2019-05-03T17:38:07.074Z,4.67
2019-05-03T17:43:36.387Z,3.90
2019-05-03T17:48:45.233Z,4.43
2019-05-03T17:54:07.269Z,4.17
2019-05-03T17:59:29.500Z,5.63
2019-05-03T18:04:55.027Z,6.77
2019-05-03T18:10:04.749Z,7.47
2019-05-03T18:15:17.771Z,5.20
2019-05-03T18:20:27.456Z,4.37
2019-05-03T18:25:35.339Z,6.47
2019-05-03T18:30:42.894Z,8.23
2019-05-03T18:35:55.013Z,6.60
2019-05-03T18:41:04.617Z,5.60
2019-05-03T18:46:37.077Z,6.13
2019-05-03T18:51:44.807Z,10.23
2019-05-03T18:56:55.735Z,5.77
2019-05-03T19:02:05.467Z,7.47
2019-05-03T19:07:29.971Z,19.63
2019-05-03T19:12:48.990Z,11.33
2019-05-03T19:18:01.450Z,12.13
2019-05-03T19:23:09.885Z,10.47
2019-05-03T19:28:17.809Z,13.60
2019-05-03T19:33:30.232Z,13.40
2019-05-03T19:38:40.443Z,12.90
2019-05-03T19:43:47.693Z,9.03
2019-05-03T19:48:57.278Z,10.13
2019-05-03T19:54:05.693Z,10.40
2019-05-03T19:59:15.647Z,11.67
2019-05-03T20:04:57.404Z,9.47
2019-05-03T20:09:55.609Z,11.07
2019-05-03T20:15:05.312Z,36.00
2019-05-03T20:20:15.444Z,61.33
2019-05-03T20:25:24.334Z,16.87
2019-05-03T20:30:30.971Z,28.83
2019-05-03T20:35:45.141Z,13.30
2019-05-03T20:40:57.760Z,18.97
2019-05-03T20:46:12.284Z,18.43
2019-05-03T20:51:17.575Z,10.20
2019-05-03T20:56:26.973Z,7.13
2019-05-03T21:01:34.753Z,4.67
2019-05-03T21:06:45.509Z,7.50
2019-05-03T21:11:55.139Z,5.60
2019-05-03T21:17:17.232Z,6.83
2019-05-03T21:22:35.934Z,4.93
2019-05-03T21:27:45.161Z,8.00
2019-05-03T21:32:51.629Z,7.13
2019-05-03T21:37:59.174Z,5.40
2019-05-03T21:43:05.118Z,6.40
2019-05-03T21:48:20.003Z,7.27
2019-05-03T21:53:34.461Z,7.27
2019-05-03T21:58:44.948Z,5.80
2019-05-03T22:03:51.440Z,5.43
2019-05-03T22:09:00.069Z,9.33
2019-05-03T22:14:12.684Z,6.03
2019-05-03T22:19:22.183Z,5.60
2019-05-03T22:24:42.053Z,4.83
2019-05-03T22:29:55.041Z,5.13
2019-05-03T22:35:06.686Z,3.73
2019-05-03T22:40:18.660Z,3.83
2019-05-03T22:45:24.785Z,4.20
2019-05-03T22:50:34.449Z,8.60
2019-05-03T22:55:45.100Z,4.97
2019-05-03T23:00:55.107Z,3.83
2019-05-03T23:06:00.878Z,6.67
2019-05-03T23:11:12.294Z,5.50
2019-05-03T23:16:20.060Z,7.67
2019-05-03T23:21:31.557Z,4.23
2019-05-03T23:26:39.500Z,5.13
2019-05-03T23:31:48.607Z,4.17
2019-05-03T23:36:57.758Z,4.33
2019-05-03T23:42:09.304Z,5.13
2019-05-03T23:47:27.581Z,6.30
2019-05-03T23:52:35.712Z,6.97
2019-05-03T23:57:44.668Z,7.03
